Time;durP1;ratioP1;P1;durP2;ratioP2;P2;SDS_P1;SDS_P2;PMS_P1;PMS_P2;Temp;Humidity;BMP_temperature;BMP_pressure;BME280_temperature;BME280_humidity;BME280_pressure;Samples;Min_cycle;Max_cycle;Signal;HPM_P1;HPM_P2
2022/12/16 00:00:12;;;;;;;3.28;1.23;;;;;;;-10.68;64.59;101040.19;5018751;28;20044;-77
2022/12/16 00:02:40;;;;;;;7.72;1.73;;;;;;;-10.68;64.45;101043.59;5008138;28;20048;-77
2022/12/16 00:05:08;;;;;;;7.82;2.20;;;;;;;-10.69;64.53;101038.44;5020634;28;20057;-77
2022/12/16 00:07:35;;;;;;;6.43;1.58;;;;;;;-10.71;64.46;101047.56;5025309;28;20041;-76
2022/12/16 00:10:02;;;;;;;5.30;2.10;;;;;;;-10.74;64.53;101049.88;5020320;28;20624;-77
2022/12/16 00:12:28;;;;;;;7.65;1.45;;;;;;;-10.75;64.48;101049.00;5024000;28;20107;-77
2022/12/16 00:14:55;;;;;;;6.05;2.13;;;;;;;-10.77;64.47;101055.56;5022426;28;20041;-77
2022/12/16 00:17:22;;;;;;;4.57;1.05;;;;;;;-10.92;64.64;101029.25;5022406;28;20465;-77
2022/12/16 00:19:51;;;;;;;5.32;1.90;;;;;;;-10.89;64.50;101042.97;5025087;28;20072;-77
2022/12/16 00:22:18;;;;;;;4.63;1.27;;;;;;;-10.83;64.38;101060.19;5023535;28;20057;-77
2022/12/16 00:24:44;;;;;;;6.90;1.10;;;;;;;-10.85;64.37;101061.72;5023465;28;20064;-77
2022/12/16 00:27:11;;;;;;;5.88;2.10;;;;;;;-10.87;64.49;101063.25;5027859;28;20042;-77
2022/12/16 00:29:38;;;;;;;5.93;1.25;;;;;;;-10.97;64.41;101054.16;5020620;28;20383;-77
2022/12/16 00:32:05;;;;;;;4.18;1.23;;;;;;;-10.93;64.52;101063.72;5026676;28;20069;-77
2022/12/16 00:34:32;;;;;;;7.70;1.30;;;;;;;-10.91;64.49;101066.31;5017465;28;20052;-76
2022/12/16 00:37:00;;;;;;;5.07;0.90;;;;;;;-10.98;64.32;101054.91;5026162;28;20073;-76
2022/12/16 00:39:28;;;;;;;3.88;1.27;;;;;;;-10.92;64.47;101064.56;5024684;28;20045;-77
2022/12/16 00:41:54;;;;;;;2.20;1.02;;;;;;;-11.14;64.40;101032.75;5028417;28;20072;-77
2022/12/16 00:44:21;;;;;;;2.95;1.05;;;;;;;-10.94;64.64;101071.16;5024179;28;20054;-76
2022/12/16 00:46:48;;;;;;;4.72;1.13;;;;;;;-10.96;64.37;101067.63;5025699;28;20104;-77
2022/12/16 00:49:15;;;;;;;4.85;0.82;;;;;;;-10.97;64.60;101071.81;5027203;28;20049;-79
2022/12/16 00:51:41;;;;;;;4.47;0.82;;;;;;;-10.96;64.66;101077.72;5027135;28;20535;-77
2022/12/16 00:54:10;;;;;;;4.75;1.08;;;;;;;-10.99;64.36;101083.41;5025652;28;20061;-77
2022/12/16 00:56:36;;;;;;;3.83;1.17;;;;;;;-10.99;64.68;101087.59;5028310;28;20192;-77
2022/12/16 00:59:03;;;;;;;7.57;0.95;;;;;;;-11.02;64.57;101078.16;5028691;28;20045;-77
2022/12/16 01:01:30;;;;;;;2.63;1.25;;;;;;;-11.02;64.30;101074.75;5027811;28;20045;-77
2022/12/16 01:03:57;;;;;;;4.53;1.27;;;;;;;-11.03;64.44;101075.53;5027142;28;20052;-76
2022/12/16 01:06:24;;;;;;;4.10;1.33;;;;;;;-11.11;64.43;101058.19;5024771;28;20046;-77
2022/12/16 01:08:51;;;;;;;4.05;0.88;;;;;;;-11.03;64.67;101070.50;5024738;28;20057;-76
2022/12/16 01:11:20;;;;;;;5.05;1.10;;;;;;;-11.04;64.42;101079.72;5028489;28;20493;-78
2022/12/16 01:13:50;;;;;;;4.82;0.98;;;;;;;-11.03;64.59;101071.38;5022913;28;20551;-77
2022/12/16 01:16:17;;;;;;;4.50;0.98;;;;;;;-11.11;64.48;101068.28;5025119;28;20085;-77
2022/12/16 01:18:44;;;;;;;5.40;1.00;;;;;;;-11.04;64.61;101088.91;5024335;28;20049;-77
2022/12/16 01:21:13;;;;;;;5.68;1.02;;;;;;;-11.03;64.75;101083.09;5022540;28;20061;-77
2022/12/16 01:23:41;;;;;;;4.30;0.98;;;;;;;-11.02;64.61;101092.41;5024908;28;20132;-77
2022/12/16 01:26:07;;;;;;;3.67;0.80;;;;;;;-11.01;64.61;101099.22;5029119;28;20088;-77
2022/12/16 01:28:35;;;;;;;5.55;1.15;;;;;;;-11.12;64.68;101079.16;5026931;28;20500;-76
2022/12/16 01:31:02;;;;;;;3.78;0.90;;;;;;;-10.99;64.80;101103.59;5020293;28;20741;-77
2022/12/16 01:33:31;;;;;;;5.63;0.70;;;;;;;-10.99;64.53;101102.72;5020602;28;20073;-77
2022/12/16 01:36:02;;;;;;;2.83;0.70;;;;;;;-10.99;64.56;101097.69;5026119;28;20060;-77
2022/12/16 01:38:29;;;;;;;2.58;0.70;;;;;;;-11.04;64.55;101089.81;5025100;28;20045;-77
2022/12/16 01:40:56;;;;;;;3.97;1.25;;;;;;;-11.02;64.66;101092.41;5025146;28;20734;-77
2022/12/16 01:43:26;;;;;;;3.08;0.82;;;;;;;-11.07;64.82;101073.53;5024691;28;21248;-78
2022/12/16 01:45:58;;;;;;;2.83;0.88;;;;;;;-11.01;64.57;101084.06;5033424;28;20059;-77
2022/12/16 01:48:35;;;;;;;2.45;0.68;;;;;;;-11.01;64.58;101099.22;5021867;28;20049;-77
2022/12/16 01:51:06;;;;;;;4.18;1.10;;;;;;;-11.06;64.83;101087.94;5022506;28;20743;-77
2022/12/16 01:53:34;;;;;;;4.05;0.95;;;;;;;-11.02;64.63;101097.47;5026457;28;20493;-77
2022/12/16 01:56:02;;;;;;;3.50;1.20;;;;;;;-11.02;64.47;101098.34;5027267;28;20048;-77
2022/12/16 01:58:32;;;;;;;5.22;0.93;;;;;;;-11.01;64.64;101101.72;5021059;28;20081;-77
2022/12/16 02:01:02;;;;;;;3.20;0.95;;;;;;;-11.01;64.44;101097.59;5025395;28;20046;-77
2022/12/16 02:03:32;;;;;;;4.57;1.27;;;;;;;-11.03;64.65;101096.59;5022041;28;20134;-77
2022/12/16 02:06:00;;;;;;;3.03;0.70;;;;;;;-11.02;64.72;101092.41;5023993;28;20053;-77
2022/12/16 02:08:27;;;;;;;3.60;1.10;;;;;;;-11.02;64.79;101097.47;5026916;28;20049;-77
2022/12/16 02:11:08;;;;;;;4.05;0.95;;;;;;;-11.04;64.60;101099.91;5028108;28;20056;-77
2022/12/16 02:13:49;;;;;;;4.00;0.90;;;;;;;-11.05;64.61;101099.75;5023137;28;20111;-77
2022/12/16 02:16:24;;;;;;;4.15;1.15;;;;;;;-11.02;64.96;101102.50;5019458;28;20046;-77
2022/12/16 02:19:01;;;;;;;4.88;0.95;;;;;;;-11.04;64.76;101104.03;5024834;28;20616;-77
2022/12/16 02:21:52;;;;;;;3.17;1.02;;;;;;;-11.05;64.67;101107.34;5024542;28;20079;-77
2022/12/16 02:24:56;;;;;;;2.58;0.90;;;;;;;-11.05;64.66;101107.34;5020856;28;20076;-77
2022/12/16 02:27:49;;;;;;;6.63;1.52;;;;;;;-11.05;64.61;101105.69;4982206;28;20041;-76
2022/12/16 02:30:46;;;;;;;2.83;1.08;;;;;;;-11.06;64.57;101108.13;5017002;28;20111;-77
2022/12/16 02:33:46;;;;;;;4.82;1.40;;;;;;;-11.07;64.41;101109.72;5024265;28;20095;-77
2022/12/16 02:36:25;;;;;;;4.40;1.35;;;;;;;-11.18;64.56;101095.50;5028024;28;20049;-76
2022/12/16 02:38:59;;;;;;;6.43;1.35;;;;;;;-11.10;64.87;101115.47;5023002;28;20061;-77
2022/12/16 02:41:33;;;;;;;4.53;0.90;;;;;;;-11.10;64.57;101125.53;5020238;28;20093;-77
2022/12/16 02:44:04;;;;;;;3.17;0.73;;;;;;;-11.18;64.64;101116.53;5022477;28;20077;-76
2022/12/16 02:46:38;;;;;;;5.25;1.17;;;;;;;-11.10;64.44;101130.59;5023569;28;20045;-77
2022/12/16 02:49:07;;;;;;;3.47;1.25;;;;;;;-11.11;64.56;101122.91;5028731;28;20049;-77
2022/12/16 02:51:37;;;;;;;3.92;0.82;;;;;;;-11.10;64.47;101133.13;5024014;28;20128;-77
2022/12/16 02:54:05;;;;;;;2.75;1.00;;;;;;;-11.19;64.71;101119.81;5024139;28;20042;-77
2022/12/16 02:56:46;;;;;;;2.92;0.70;;;;;;;-11.13;64.33;101127.84;5027893;28;20049;-77
2022/12/16 02:59:20;;;;;;;5.82;1.30;;;;;;;-11.13;64.37;101126.94;5019629;28;20069;-77
2022/12/16 03:01:55;;;;;;;7.35;1.00;;;;;;;-11.13;64.56;101130.38;5027455;28;20045;-77
2022/12/16 03:04:29;;;;;;;3.55;1.00;;;;;;;-11.15;64.49;101129.38;5021914;28;20052;-77
2022/12/16 03:06:58;;;;;;;6.28;1.13;;;;;;;-11.21;64.47;101121.34;5026198;28;20049;-76
2022/12/16 03:09:28;;;;;;;3.20;0.60;;;;;;;-11.17;64.66;101130.03;5029031;28;20053;-77
2022/12/16 03:11:57;;;;;;;4.20;1.13;;;;;;;-11.18;64.54;101133.31;5026662;28;20421;-77
2022/12/16 03:14:29;;;;;;;4.60;1.02;;;;;;;-11.19;64.69;101141.63;5028101;28;20516;-77
2022/12/16 03:16:59;;;;;;;7.90;1.15;;;;;;;-11.23;64.76;101135.47;5027378;28;20049;-78
2022/12/16 03:19:27;;;;;;;4.75;1.08;;;;;;;-11.21;64.74;101146.56;5023523;28;20045;-77
2022/12/16 03:22:01;;;;;;;3.63;1.25;;;;;;;-11.20;64.43;101148.31;5025911;28;20060;-74
2022/12/16 03:24:29;;;;;;;5.57;1.52;;;;;;;-11.22;64.30;101149.84;5022294;28;20448;-75
2022/12/16 03:27:01;;;;;;;6.50;1.50;;;;;;;-11.22;64.65;101146.44;5020615;28;20046;-75
2022/12/16 03:29:37;;;;;;;5.80;0.95;;;;;;;-11.20;64.45;101153.38;5023713;28;20045;-77
2022/12/16 03:32:09;;;;;;;5.53;1.05;;;;;;;-11.19;64.65;101159.28;5021506;28;20052;-77
2022/12/16 03:34:42;;;;;;;5.78;1.40;;;;;;;-11.19;64.52;101162.69;5018719;28;20064;-77
2022/12/16 03:37:10;;;;;;;3.13;1.00;;;;;;;-11.27;64.76;101150.25;5026463;28;20401;-76
2022/12/16 03:39:42;;;;;;;3.67;1.13;;;;;;;-11.21;64.57;101156.66;5024072;28;20505;-77
2022/12/16 03:42:10;;;;;;;4.40;1.15;;;;;;;-11.19;64.43;101161.81;5023008;28;20061;-76
2022/12/16 03:44:37;;;;;;;4.15;1.05;;;;;;;-11.20;64.41;101167.63;5024676;28;20041;-76
2022/12/16 03:47:05;;;;;;;9.95;1.65;;;;;;;-11.23;64.55;101163.22;5023600;28;20467;-76
2022/12/16 03:49:32;;;;;;;4.55;1.50;;;;;;;-11.20;64.46;101170.16;5021163;28;20135;-76
2022/12/16 03:51:59;;;;;;;3.80;1.20;;;;;;;-11.21;64.64;101176.84;5022273;28;20060;-76
2022/12/16 03:54:26;;;;;;;5.88;1.25;;;;;;;-11.21;64.72;101176.84;5023059;28;20049;-76
2022/12/16 03:56:53;;;;;;;5.03;1.17;;;;;;;-11.20;64.67;101178.59;5028256;28;20049;-76
2022/12/16 03:59:20;;;;;;;7.65;1.52;;;;;;;-11.20;64.68;101180.22;5021065;28;20460;-77
2022/12/16 04:01:46;;;;;;;4.03;1.00;;;;;;;-11.20;64.60;101178.59;5021636;28;20053;-76
2022/12/16 04:04:15;;;;;;;3.28;1.38;;;;;;;-11.21;64.76;101184.41;5021162;28;20053;-76
2022/12/16 04:06:42;;;;;;;4.22;1.40;;;;;;;-11.20;64.54;101185.28;5024966;28;20050;-77
2022/12/16 04:09:09;;;;;;;4.97;1.15;;;;;;;-11.22;64.52;101179.22;5019239;28;20437;-76
2022/12/16 04:25:26;;;;;;;4.03;1.10;;;;;;;-11.29;64.56;101188.00;5021219;28;20068;-76
2022/12/16 04:27:53;;;;;;;5.68;1.33;;;;;;;-11.35;64.66;101185.00;5023730;28;20468;-76
2022/12/16 04:30:21;;;;;;;3.17;0.70;;;;;;;-11.22;64.61;101200.28;5018051;28;20501;-76
